createdAt,value
2018-12-26T00:00:10.049Z,98786.38
2018-12-26T00:00:41.685Z,98786.80
2018-12-26T00:01:13.403Z,98785.94
2018-12-26T00:01:45.093Z,98782.95
2018-12-26T00:02:16.615Z,98785.05
2018-12-26T00:02:48.249Z,98776.08
2018-12-26T00:03:19.832Z,98773.97
2018-12-26T00:03:51.427Z,98774.41
2018-12-26T00:04:23.012Z,98780.34
2018-12-26T00:04:54.609Z,98778.62
2018-12-26T00:05:26.235Z,98782.84
2018-12-26T00:05:57.885Z,98777.66
2018-12-26T00:06:29.478Z,98771.62
2018-12-26T00:07:01.089Z,98775.88
2018-12-26T00:07:32.723Z,98775.88
2018-12-26T00:08:04.328Z,98775.80
2018-12-26T00:08:35.925Z,98778.34
2018-12-26T00:09:07.518Z,98780.06
2018-12-26T00:09:39.126Z,98777.07
2018-12-26T00:10:10.740Z,98766.32
2018-12-26T00:10:42.351Z,98778.22
2018-12-26T00:11:13.964Z,98778.12
2018-12-26T00:11:45.556Z,98772.55
2018-12-26T00:12:17.150Z,98769.94
2018-12-26T00:12:48.774Z,98781.89
2018-12-26T00:13:20.460Z,98777.62
2018-12-26T00:13:52.034Z,98785.22
2018-12-26T00:14:23.618Z,98782.64
2018-12-26T00:14:55.258Z,98778.38
2018-12-26T00:15:27.017Z,98783.50
2018-12-26T00:15:58.655Z,98785.64
2018-12-26T00:16:30.260Z,98782.59
2018-12-26T00:17:01.849Z,98771.47
2018-12-26T00:17:33.460Z,98774.03
2018-12-26T00:18:05.082Z,98773.59
2018-12-26T00:18:36.713Z,98775.25
2018-12-26T00:19:08.331Z,98776.53
2018-12-26T00:19:39.959Z,98775.25
2018-12-26T00:20:11.580Z,98782.04
2018-12-26T00:20:43.178Z,98784.60
2018-12-26T00:21:14.770Z,98778.61
2018-12-26T00:21:46.367Z,98779.89
2018-12-26T00:22:17.967Z,98771.80
2018-12-26T00:22:49.562Z,98775.74
2018-12-26T00:23:21.186Z,98772.39
2018-12-26T00:23:52.809Z,98774.52
2018-12-26T00:24:24.423Z,98777.94
2018-12-26T00:24:56.032Z,98770.31
2018-12-26T00:25:27.659Z,98774.59
2018-12-26T00:26:01.733Z,98773.79
2018-12-26T00:26:30.908Z,98772.98
2018-12-26T00:27:02.519Z,98775.55
2018-12-26T00:27:34.110Z,98772.98
2018-12-26T00:28:05.747Z,98778.50
2018-12-26T00:28:37.351Z,98771.17
2018-12-26T00:29:08.946Z,98777.09
2018-12-26T00:29:40.531Z,98768.48
2018-12-26T00:30:12.142Z,98762.08
2018-12-26T00:30:43.755Z,98769.28
2018-12-26T00:31:15.350Z,98767.19
2018-12-26T00:31:46.938Z,98761.16
2018-12-26T00:32:18.520Z,98765.49
2018-12-26T00:32:50.127Z,98763.77
2018-12-26T00:33:21.760Z,98757.36
2018-12-26T00:33:53.352Z,98764.25
2018-12-26T00:34:24.961Z,98768.96
2018-12-26T00:34:56.562Z,98760.84
2018-12-26T00:35:28.172Z,98762.11
2018-12-26T00:35:59.780Z,98767.27
2018-12-26T00:36:31.382Z,98771.16
2018-12-26T00:37:02.996Z,98768.64
2018-12-26T00:37:34.598Z,98769.50
2018-12-26T00:38:06.205Z,98770.73
2018-12-26T00:38:37.845Z,98763.47
2018-12-26T00:39:09.457Z,98763.48
2018-12-26T00:39:41.049Z,98780.19
2018-12-26T00:40:12.642Z,98769.52
2018-12-26T00:40:44.237Z,98772.98
2018-12-26T00:41:15.823Z,98761.55
2018-12-26T00:41:47.422Z,98773.16
2018-12-26T00:42:19.031Z,98771.58
2018-12-26T00:42:50.641Z,98776.33
2018-12-26T00:43:22.265Z,98767.45
2018-12-26T00:43:53.862Z,98776.17
2018-12-26T00:44:25.473Z,98768.29
2018-12-26T00:44:57.085Z,98770.27
2018-12-26T00:45:28.692Z,98760.64
2018-12-26T00:46:00.284Z,98766.26
2018-12-26T00:46:31.892Z,98763.46
2018-12-26T00:47:03.504Z,98767.74
2018-12-26T00:47:35.101Z,98763.80
2018-12-26T00:48:06.689Z,98763.64
2018-12-26T00:48:38.324Z,98763.03
2018-12-26T00:49:09.954Z,98763.73
2018-12-26T00:49:41.559Z,98763.20
2018-12-26T00:50:13.157Z,98773.35
2018-12-26T00:50:44.761Z,98754.09
2018-12-26T00:51:16.367Z,98756.13
2018-12-26T00:51:47.984Z,98756.92
2018-12-26T00:52:19.577Z,98763.70
2018-12-26T00:52:51.169Z,98756.86
2018-12-26T00:53:22.771Z,98754.68
2018-12-26T00:53:54.398Z,98752.53
2018-12-26T00:54:26.003Z,98756.38
2018-12-26T00:54:57.634Z,98755.53
2018-12-26T00:55:29.240Z,98755.58
2018-12-26T00:56:00.851Z,98754.72
2018-12-26T00:56:32.455Z,98762.41
2018-12-26T00:57:04.055Z,98767.11
2018-12-26T00:57:35.659Z,98760.70
2018-12-26T00:58:07.297Z,98761.13
2018-12-26T00:58:38.887Z,98763.69
2018-12-26T00:59:10.505Z,98764.98
2018-12-26T00:59:42.111Z,98761.56
2018-12-26T01:00:13.705Z,98765.03
2018-12-26T01:00:45.312Z,98765.03
2018-12-26T01:01:16.914Z,98763.69
2018-12-26T01:01:48.503Z,98758.95
2018-12-26T01:02:20.107Z,98764.06
2018-12-26T01:02:51.710Z,98759.74
2018-12-26T01:03:23.321Z,98757.56
2018-12-26T01:03:54.965Z,98759.74
2018-12-26T01:04:26.564Z,98752.48
2018-12-26T01:04:58.158Z,98752.00
2018-12-26T01:05:29.787Z,98757.55
2018-12-26T01:06:01.383Z,98755.84
2018-12-26T01:06:32.987Z,98750.72
2018-12-26T01:07:04.579Z,98754.56
2018-12-26T01:07:36.192Z,98756.27
2018-12-26T01:08:07.787Z,98758.83
2018-12-26T01:08:39.386Z,98751.63
2018-12-26T01:09:11.071Z,98757.17
2018-12-26T01:09:42.676Z,98758.41
2018-12-26T01:10:14.287Z,98757.12
2018-12-26T01:10:45.894Z,98758.79
2018-12-26T01:11:17.489Z,98758.84
2018-12-26T01:11:49.082Z,98757.18
2018-12-26T01:12:20.705Z,98751.25
2018-12-26T01:12:52.298Z,98758.08
2018-12-26T01:13:23.889Z,98764.02
2018-12-26T01:13:55.476Z,98755.42
2018-12-26T01:14:27.112Z,98755.84
2018-12-26T01:14:58.710Z,98764.77
2018-12-26T01:15:30.315Z,98759.22
2018-12-26T01:16:01.904Z,98761.72
2018-12-26T01:16:33.527Z,98757.88
2018-12-26T01:17:05.231Z,98752.32
2018-12-26T01:17:36.840Z,98752.74
2018-12-26T01:18:08.442Z,98752.73
2018-12-26T01:18:40.056Z,98754.03
2018-12-26T01:19:11.672Z,98746.34
2018-12-26T01:19:43.383Z,98749.33
2018-12-26T01:20:14.979Z,98750.66
2018-12-26T01:20:46.575Z,98745.11
2018-12-26T01:21:18.183Z,98742.53
2018-12-26T01:21:49.772Z,98745.09
2018-12-26T01:22:21.370Z,98743.39
2018-12-26T01:22:52.980Z,98731.38
2018-12-26T01:23:24.579Z,98742.92
2018-12-26T01:23:56.164Z,98751.05
2018-12-26T01:24:27.788Z,98746.34
2018-12-26T01:24:59.510Z,98750.56
2018-12-26T01:25:31.092Z,98753.11
2018-12-26T01:26:02.693Z,98746.27
2018-12-26T01:26:34.304Z,98748.39
2018-12-26T01:27:05.990Z,98745.34
2018-12-26T01:27:37.570Z,98745.77
2018-12-26T01:28:09.167Z,98747.91
2018-12-26T01:28:40.765Z,98744.48
2018-12-26T01:29:12.344Z,98761.53
2018-12-26T01:29:43.955Z,98744.00
2018-12-26T01:30:15.561Z,98739.69
2018-12-26T01:30:48.194Z,98744.37
2018-12-26T01:31:19.790Z,98740.95
2018-12-26T01:31:51.398Z,98740.95
2018-12-26T01:32:22.993Z,98742.67
2018-12-26T01:32:54.576Z,98748.66
2018-12-26T01:33:26.183Z,98751.27
2018-12-26T01:33:57.787Z,98747.84
2018-12-26T01:34:29.429Z,98746.57
2018-12-26T01:35:01.026Z,98744.86
2018-12-26T01:35:32.638Z,98744.42
2018-12-26T01:36:04.237Z,98747.38
2018-12-26T01:36:35.843Z,98749.95
2018-12-26T01:37:07.439Z,98748.22
2018-12-26T01:37:39.037Z,98749.08
2018-12-26T01:38:10.644Z,98747.00
2018-12-26T01:38:42.248Z,98744.37
2018-12-26T01:39:13.856Z,98743.95
2018-12-26T01:39:45.459Z,98746.90
2018-12-26T01:40:17.080Z,98748.48
2018-12-26T01:40:48.685Z,98748.47
2018-12-26T01:41:20.276Z,98754.45
2018-12-26T01:41:51.883Z,98747.63
2018-12-26T01:42:23.465Z,98745.50
2018-12-26T01:42:55.075Z,98742.55
2018-12-26T01:43:26.701Z,98746.41
2018-12-26T01:43:58.318Z,98750.69
2018-12-26T01:44:29.933Z,98741.75
2018-12-26T01:45:01.570Z,98749.83
2018-12-26T01:45:33.270Z,98741.70
2018-12-26T01:46:04.862Z,98747.31
2018-12-26T01:46:36.456Z,98742.23
2018-12-26T01:47:08.054Z,98749.89
2018-12-26T01:47:39.660Z,98737.91
2018-12-26T01:48:11.254Z,98747.36
2018-12-26T01:48:42.860Z,98748.64
2018-12-26T01:49:14.486Z,98745.23
2018-12-26T01:49:46.096Z,98743.95
2018-12-26T01:50:17.732Z,98742.67
2018-12-26T01:50:49.345Z,98734.48
2018-12-26T01:51:20.954Z,98734.00
2018-12-26T01:51:52.621Z,98734.80
2018-12-26T01:52:24.232Z,98738.60
2018-12-26T01:52:55.851Z,98751.85
2018-12-26T01:53:27.454Z,98743.34
2018-12-26T01:53:59.050Z,98744.13
2018-12-26T01:54:30.628Z,98747.84
2018-12-26T01:55:02.260Z,98742.22
2018-12-26T01:55:33.854Z,98744.66
2018-12-26T01:56:05.470Z,98749.76
2018-12-26T01:56:37.052Z,98755.75
2018-12-26T01:57:08.646Z,98749.67
2018-12-26T01:57:40.256Z,98760.05
2018-12-26T01:58:11.859Z,98752.91
2018-12-26T01:58:43.461Z,98759.06
2018-12-26T01:59:15.052Z,98758.34
2018-12-26T01:59:46.653Z,98756.83
2018-12-26T02:00:18.278Z,98748.54
2018-12-26T02:00:49.883Z,98750.94
2018-12-26T02:01:21.478Z,98760.63
2018-12-26T02:01:53.070Z,98754.54
2018-12-26T02:02:24.655Z,98757.02
2018-12-26T02:02:56.251Z,98760.81
2018-12-26T02:03:27.974Z,98765.46
2018-12-26T02:03:59.683Z,98754.80
2018-12-26T02:04:31.235Z,98768.40
2018-12-26T02:05:02.830Z,98728.98
2018-12-26T02:05:34.449Z,98760.26
2018-12-26T02:06:06.051Z,98762.39
2018-12-26T02:06:37.650Z,98765.80
2018-12-26T02:07:09.245Z,98754.75
2018-12-26T02:07:40.851Z,98729.45
2018-12-26T02:08:12.446Z,98756.50
2018-12-26T02:08:44.045Z,98742.98
2018-12-26T02:09:15.712Z,98757.78
2018-12-26T02:09:47.356Z,98758.21
2018-12-26T02:10:18.989Z,98752.70
2018-12-26T02:10:50.576Z,98757.86
2018-12-26T02:11:22.184Z,98765.55
2018-12-26T02:11:53.782Z,98765.58
2018-12-26T02:12:25.363Z,98760.08
2018-12-26T02:12:56.967Z,98763.06
2018-12-26T02:13:28.571Z,98763.10
2018-12-26T02:14:00.174Z,98764.81
2018-12-26T02:14:31.779Z,98771.67
2018-12-26T02:15:03.379Z,98765.28
2018-12-26T02:15:35.001Z,98769.58
2018-12-26T02:16:06.593Z,98758.53
2018-12-26T02:16:38.203Z,98764.08
2018-12-26T02:17:09.802Z,98763.69
2018-12-26T02:17:41.412Z,98761.17
2018-12-26T02:18:13.006Z,98767.99
2018-12-26T02:18:44.615Z,98759.50
2018-12-26T02:19:16.228Z,98765.48
2018-12-26T02:19:47.835Z,98763.34
2018-12-26T02:20:19.467Z,98755.70
2018-12-26T02:20:51.058Z,98764.66
2018-12-26T02:21:22.664Z,98761.29
2018-12-26T02:21:54.271Z,98761.33
2018-12-26T02:22:25.868Z,98754.51
2018-12-26T02:22:57.461Z,98759.23
2018-12-26T02:23:29.054Z,98762.67
2018-12-26T02:24:00.649Z,98752.59
2018-12-26T02:24:32.260Z,98758.87
2018-12-26T02:25:03.867Z,98757.60
2018-12-26T02:25:35.498Z,98761.47
2018-12-26T02:26:07.094Z,98756.78
2018-12-26T02:26:38.692Z,98761.08
2018-12-26T02:27:10.285Z,98754.27
2018-12-26T02:27:41.887Z,98756.00
2018-12-26T02:28:13.491Z,98754.30
2018-12-26T02:28:45.085Z,98750.50
2018-12-26T02:29:16.678Z,98748.38
2018-12-26T02:29:48.284Z,98746.23
2018-12-26T02:30:19.888Z,98752.63
2018-12-26T02:30:51.515Z,98751.39
2018-12-26T02:31:23.111Z,98745.45
2018-12-26T02:31:54.730Z,98744.14
2018-12-26T02:32:26.323Z,98744.18
2018-12-26T02:32:57.922Z,98745.92
2018-12-26T02:33:29.533Z,98739.10
2018-12-26T02:34:01.134Z,98713.78
2018-12-26T02:34:32.731Z,98737.44
2018-12-26T02:35:04.337Z,98741.73
2018-12-26T02:35:35.958Z,98731.93
2018-12-26T02:36:07.558Z,98743.86
2018-12-26T02:36:39.168Z,98731.97
2018-12-26T02:37:10.882Z,98732.39
2018-12-26T02:37:42.473Z,98736.69
2018-12-26T02:38:14.066Z,98723.48
2018-12-26T02:38:45.666Z,98734.16
2018-12-26T02:39:17.271Z,98732.03
2018-12-26T02:39:48.866Z,98730.79
2018-12-26T02:40:20.481Z,98730.79
2018-12-26T02:40:52.107Z,98732.92
2018-12-26T02:41:23.701Z,98738.06
2018-12-26T02:41:55.311Z,98737.21
2018-12-26T02:42:26.910Z,98738.09
2018-12-26T02:42:58.550Z,98734.69
2018-12-26T02:43:30.148Z,98734.33
2018-12-26T02:44:01.746Z,98742.39
2018-12-26T02:44:33.346Z,98740.72
2018-12-26T02:45:04.960Z,98725.39
2018-12-26T02:45:36.596Z,98733.05
2018-12-26T02:46:08.225Z,98740.29
2018-12-26T02:46:39.875Z,98731.81
2018-12-26T02:47:11.469Z,98733.08
2018-12-26T02:47:43.077Z,98728.40
2018-12-26T02:48:14.685Z,98738.66
2018-12-26T02:48:46.288Z,98730.14
2018-12-26T02:49:17.881Z,98728.43
2018-12-26T02:49:49.479Z,98728.46
2018-12-26T02:50:21.074Z,98728.89
2018-12-26T02:50:52.685Z,98737.41
2018-12-26T02:51:24.292Z,98730.59
2018-12-26T02:51:55.900Z,98724.20
2018-12-26T02:52:27.498Z,98737.86
2018-12-26T02:52:59.106Z,98731.08
2018-12-26T02:53:30.712Z,98729.34
2018-12-26T02:54:02.321Z,98731.91
2018-12-26T02:54:33.919Z,98730.66
2018-12-26T02:55:05.510Z,98727.70
2018-12-26T02:55:37.129Z,98740.91
2018-12-26T02:56:08.765Z,98716.21
2018-12-26T02:56:47.473Z,98720.86
2018-12-26T02:57:12.007Z,98722.99
2018-12-26T02:57:43.598Z,98727.28
2018-12-26T02:58:15.215Z,98727.28
2018-12-26T02:58:46.821Z,98733.21
2018-12-26T02:59:18.424Z,98725.55
2018-12-26T02:59:50.027Z,98733.64
2018-12-26T03:00:21.626Z,98730.20
2018-12-26T03:00:53.261Z,98730.63
2018-12-26T03:01:24.940Z,98728.92
2018-12-26T03:01:56.546Z,98732.75
2018-12-26T03:02:28.146Z,98726.80
2018-12-26T03:02:59.792Z,98724.70
2018-12-26T03:03:31.395Z,98728.53
2018-12-26T03:04:03.007Z,98728.09
2018-12-26T03:04:34.608Z,98729.38
2018-12-26T03:05:06.206Z,98741.30
2018-12-26T03:05:38.368Z,98723.42
2018-12-26T03:06:10.008Z,98728.09
2018-12-26T03:06:41.660Z,98731.94
2018-12-26T03:07:13.272Z,98729.80
2018-12-26T03:07:44.875Z,98711.68
2018-12-26T03:08:16.471Z,98737.92
2018-12-26T03:08:48.052Z,98734.95
2018-12-26T03:09:19.631Z,98727.70
2018-12-26T03:09:51.244Z,98732.39
2018-12-26T03:10:22.828Z,98735.37
2018-12-26T03:10:54.447Z,98736.25
2018-12-26T03:11:26.070Z,98737.53
2018-12-26T03:11:57.686Z,98735.39
2018-12-26T03:12:29.272Z,98737.95
2018-12-26T03:13:00.877Z,98740.97
2018-12-26T03:13:32.492Z,98747.78
2018-12-26T03:14:04.090Z,98747.77
2018-12-26T03:14:35.701Z,98737.56
2018-12-26T03:15:07.317Z,98748.63
2018-12-26T03:15:38.936Z,98749.51
2018-12-26T03:16:10.584Z,98747.38
2018-12-26T03:16:42.172Z,98752.06
2018-12-26T03:17:13.767Z,98752.91
2018-12-26T03:17:45.491Z,98749.53
2018-12-26T03:18:17.098Z,98752.06
2018-12-26T03:18:48.689Z,98750.81
2018-12-26T03:19:20.287Z,98749.11
2018-12-26T03:19:51.876Z,98751.66
2018-12-26T03:20:23.483Z,98752.94
2018-12-26T03:20:55.090Z,98756.38
2018-12-26T03:21:26.727Z,98758.47
2018-12-26T03:21:58.336Z,98750.84
2018-12-26T03:22:29.935Z,98750.84
2018-12-26T03:23:01.535Z,98756.38
2018-12-26T03:23:33.148Z,98756.41
2018-12-26T03:24:04.763Z,98758.11
2018-12-26T03:24:36.361Z,98755.12
2018-12-26T03:25:07.960Z,98758.11
2018-12-26T03:25:39.553Z,98757.68
2018-12-26T03:26:11.173Z,98757.69
2018-12-26T03:26:42.779Z,98753.40
2018-12-26T03:27:14.415Z,98754.22
2018-12-26T03:27:46.020Z,98754.64
2018-12-26T03:28:17.613Z,98753.80
2018-12-26T03:28:49.211Z,98756.77
2018-12-26T03:29:20.822Z,98756.77
2018-12-26T03:29:52.425Z,98745.28
2018-12-26T03:30:24.081Z,98746.98
2018-12-26T03:30:55.685Z,98748.28
2018-12-26T03:31:27.319Z,98740.62
2018-12-26T03:31:58.920Z,98719.12
2018-12-26T03:32:30.505Z,98738.10
2018-12-26T03:33:02.121Z,98735.97
2018-12-26T03:33:33.724Z,98747.89
2018-12-26T03:34:05.337Z,98743.63
2018-12-26T03:34:36.943Z,98709.36
2018-12-26T03:35:08.542Z,98746.22
2018-12-26T03:35:40.151Z,98747.49
2018-12-26T03:36:11.749Z,98747.91
2018-12-26T03:36:43.357Z,98746.21
2018-12-26T03:37:14.964Z,98758.98
2018-12-26T03:37:46.571Z,98747.49
2018-12-26T03:38:18.181Z,98754.73
2018-12-26T03:38:49.798Z,98750.05
2018-12-26T03:39:21.438Z,98739.83
2018-12-26T03:39:53.069Z,98741.14
2018-12-26T03:40:24.662Z,98744.48
2018-12-26T03:40:56.268Z,98744.91
2018-12-26T03:41:27.892Z,98750.45
2018-12-26T03:41:59.489Z,98747.44
2018-12-26T03:42:31.104Z,98748.69
2018-12-26T03:43:02.708Z,98739.32
2018-12-26T03:43:34.289Z,98744.83
2018-12-26T03:44:05.885Z,98747.78
2018-12-26T03:44:37.490Z,98734.97
2018-12-26T03:45:09.087Z,98754.10
2018-12-26T03:45:40.682Z,98737.08
2018-12-26T03:46:12.304Z,98738.75
2018-12-26T03:46:43.933Z,98739.53
2018-12-26T03:47:15.530Z,98740.81
2018-12-26T03:47:47.140Z,98741.63
2018-12-26T03:48:18.756Z,98742.87
2018-12-26T03:48:50.358Z,98736.88
2018-12-26T03:49:21.959Z,98741.11
2018-12-26T03:49:53.571Z,98741.50
2018-12-26T03:50:25.156Z,98735.11
2018-12-26T03:50:56.740Z,98738.48
2018-12-26T03:51:28.373Z,98743.14
2018-12-26T03:52:02.143Z,98736.75
2018-12-26T03:52:31.654Z,98740.59
2018-12-26T03:53:03.268Z,98748.22
2018-12-26T03:53:34.884Z,98729.87
2018-12-26T03:54:06.488Z,98732.81
2018-12-26T03:54:38.100Z,98750.67
2018-12-26T03:55:09.699Z,98734.48
2018-12-26T03:55:41.289Z,98732.75
2018-12-26T03:56:12.890Z,98737.86
2018-12-26T03:56:44.514Z,98733.56
2018-12-26T03:57:16.115Z,98740.38
2018-12-26T03:57:47.733Z,98736.94
2018-12-26T03:58:19.322Z,98739.49
2018-12-26T03:58:50.915Z,98731.83
2018-12-26T03:59:22.514Z,98730.97
2018-12-26T03:59:54.113Z,98729.27
2018-12-26T04:00:25.707Z,98735.63
2018-12-26T04:00:57.302Z,98729.66
2018-12-26T04:01:28.895Z,98735.59
2018-12-26T04:02:00.504Z,98729.20
2018-12-26T04:02:32.092Z,98727.03
2018-12-26T04:03:03.694Z,98732.60
2018-12-26T04:03:35.285Z,98733.42
2018-12-26T04:04:06.876Z,98737.69
2018-12-26T04:04:38.474Z,98731.72
2018-12-26T04:05:10.069Z,98738.99
2018-12-26T04:05:41.662Z,98729.16
2018-12-26T04:06:13.270Z,98734.70
2018-12-26T04:06:44.894Z,98731.72
2018-12-26T04:07:16.502Z,98732.56
2018-12-26T04:07:48.110Z,98735.55
2018-12-26T04:08:19.717Z,98735.97
2018-12-26T04:08:51.328Z,98736.80
2018-12-26T04:09:22.925Z,98735.94
2018-12-26T04:09:54.536Z,98739.34
2018-12-26T04:10:26.138Z,98736.79
2018-12-26T04:10:57.747Z,98734.23
2018-12-26T04:11:29.351Z,98737.22
2018-12-26T04:12:00.960Z,98741.48
2018-12-26T04:12:32.572Z,98735.09
2018-12-26T04:13:04.185Z,98735.97
2018-12-26T04:13:35.797Z,98733.42
2018-12-26T04:14:07.399Z,98736.41
2018-12-26T04:14:39.021Z,98735.13
2018-12-26T04:15:10.627Z,98729.59
2018-12-26T04:15:42.231Z,98730.02
2018-12-26T04:16:13.838Z,98732.14
2018-12-26T04:16:45.643Z,98735.98
2018-12-26T04:17:17.256Z,98742.83
2018-12-26T04:17:48.849Z,98741.55
2018-12-26T04:18:20.435Z,98739.84
2018-12-26T04:18:52.027Z,98737.75
2018-12-26T04:19:23.622Z,98745.00
2018-12-26T04:19:55.286Z,98743.75
2018-12-26T04:20:26.868Z,98747.16
2018-12-26T04:20:59.468Z,98747.20
2018-12-26T04:21:31.065Z,98739.53
2018-12-26T04:22:02.673Z,98743.79
2018-12-26T04:22:34.279Z,98736.97
2018-12-26T04:23:05.881Z,98742.55
2018-12-26T04:23:37.473Z,98746.80
2018-12-26T04:24:09.059Z,98748.12
2018-12-26T04:24:40.674Z,98744.71
2018-12-26T04:25:12.274Z,98751.95
2018-12-26T04:25:43.876Z,98758.80
2018-12-26T04:26:15.488Z,98760.51
2018-12-26T04:26:47.091Z,98749.04
2018-12-26T04:27:18.718Z,98753.30
2018-12-26T04:27:50.329Z,98748.61
2018-12-26T04:28:21.948Z,98758.87
2018-12-26T04:28:53.588Z,98749.07
2018-12-26T04:29:25.192Z,98752.05
2018-12-26T04:29:56.807Z,98745.27
2018-12-26T04:30:28.402Z,98744.42
2018-12-26T04:31:00.006Z,98739.34
2018-12-26T04:31:31.585Z,98738.09
2018-12-26T04:32:03.212Z,98744.48
2018-12-26T04:32:34.830Z,98744.91
2018-12-26T04:33:06.439Z,98736.39
2018-12-26T04:33:38.033Z,98733.02
2018-12-26T04:34:09.640Z,98735.58
2018-12-26T04:34:41.243Z,98734.75
2018-12-26T04:35:12.846Z,98731.38
2018-12-26T04:35:44.455Z,98733.94
2018-12-26T04:36:16.054Z,98728.01
2018-12-26T04:36:47.649Z,98728.86
2018-12-26T04:37:19.280Z,98735.25
2018-12-26T04:37:50.888Z,98729.73
2018-12-26T04:38:22.485Z,98733.14
2018-12-26T04:38:54.090Z,98730.63
2018-12-26T04:39:25.681Z,98732.75
2018-12-26T04:39:57.271Z,98738.29
2018-12-26T04:40:28.876Z,98730.66
2018-12-26T04:41:00.472Z,98741.30
2018-12-26T04:41:32.065Z,98734.91
2018-12-26T04:42:03.712Z,98736.62
2018-12-26T04:42:35.315Z,98737.89
2018-12-26T04:43:06.910Z,98737.04
2018-12-26T04:43:38.520Z,98737.50
2018-12-26T04:44:10.119Z,98736.22
2018-12-26T04:44:41.729Z,98733.66
2018-12-26T04:45:13.325Z,98735.40
2018-12-26T04:45:44.924Z,98733.27
2018-12-26T04:46:16.531Z,98732.42
2018-12-26T04:46:48.111Z,98729.86
2018-12-26T04:47:19.723Z,98742.66
2018-12-26T04:47:51.318Z,98730.32
2018-12-26T04:48:22.924Z,98734.58
2018-12-26T04:48:54.538Z,98739.72
2018-12-26T04:49:26.150Z,98736.73
2018-12-26T04:49:57.751Z,98734.18
2018-12-26T04:50:29.367Z,98734.18
2018-12-26T04:51:00.963Z,98740.14
2018-12-26T04:51:32.572Z,98741.41
2018-12-26T04:52:04.177Z,98736.77
2018-12-26T04:52:35.817Z,98732.51
2018-12-26T04:53:07.428Z,98737.62
2018-12-26T04:53:39.012Z,98726.13
2018-12-26T04:54:10.598Z,98735.48
2018-12-26T04:54:42.209Z,98735.52
2018-12-26T04:55:13.813Z,98718.52
2018-12-26T04:55:45.411Z,98718.55
2018-12-26T04:56:17.052Z,98727.91
2018-12-26T04:56:48.650Z,98715.57
2018-12-26T04:57:24.736Z,98689.81
2018-12-26T04:57:52.011Z,98722.83
2018-12-26T04:58:23.624Z,98718.15
2018-12-26T04:58:55.229Z,98717.72
2018-12-26T04:59:26.826Z,98713.05
2018-12-26T04:59:58.408Z,98693.24
2018-12-26T05:00:30.001Z,98708.79
2018-12-26T05:01:01.660Z,98712.62
2018-12-26T05:01:33.272Z,98707.52
2018-12-26T05:02:04.856Z,98704.95
2018-12-26T05:02:36.489Z,98702.43
2018-12-26T05:03:08.090Z,98709.24
2018-12-26T05:03:39.691Z,98713.50
2018-12-26T05:04:11.291Z,98713.50
2018-12-26T05:04:42.887Z,98715.23
2018-12-26T05:05:14.492Z,98711.41
2018-12-26T05:05:46.104Z,98713.95
2018-12-26T05:06:17.699Z,98713.95
2018-12-26T05:06:49.290Z,98710.97
2018-12-26T05:07:20.891Z,98711.43
2018-12-26T05:07:52.520Z,98716.53
2018-12-26T05:08:24.119Z,98716.96
2018-12-26T05:08:55.713Z,98713.59
2018-12-26T05:09:27.300Z,98711.00
2018-12-26T05:09:58.894Z,98718.27
2018-12-26T05:10:30.511Z,98701.24
2018-12-26T05:11:02.126Z,98713.16
2018-12-26T05:11:33.722Z,98715.71
2018-12-26T05:12:05.765Z,98726.34
2018-12-26T05:12:36.994Z,98722.13
2018-12-26T05:13:08.585Z,98729.78
2018-12-26T05:13:40.186Z,98728.91
2018-12-26T05:14:11.778Z,98737.02
2018-12-26T05:14:43.397Z,98735.31
2018-12-26T05:15:15.025Z,98741.70
2018-12-26T05:15:46.622Z,98736.56
2018-12-26T05:16:18.214Z,98742.97
2018-12-26T05:16:49.866Z,98732.76
2018-12-26T05:17:21.564Z,98732.76
2018-12-26T05:17:53.121Z,98727.23
2018-12-26T05:18:24.717Z,98737.44
2018-12-26T05:18:56.311Z,98727.69
2018-12-26T05:19:27.910Z,98724.28
2018-12-26T05:19:59.502Z,98711.08
2018-12-26T05:20:31.099Z,98716.22
2018-12-26T05:21:02.703Z,98720.87
2018-12-26T05:21:34.292Z,98715.34
2018-12-26T05:22:05.885Z,98717.04
2018-12-26T05:22:37.526Z,98731.91
2018-12-26T05:23:09.119Z,98709.78
2018-12-26T05:23:40.714Z,98723.40
2018-12-26T05:24:12.323Z,98718.30
2018-12-26T05:24:43.931Z,98725.50
2018-12-26T05:25:15.545Z,98721.61
2018-12-26T05:25:47.156Z,98716.94
2018-12-26T05:26:18.755Z,98733.47
2018-12-26T05:26:50.333Z,98726.64
2018-12-26T05:27:21.929Z,98719.80
2018-12-26T05:27:53.550Z,98728.25
2018-12-26T05:28:25.146Z,98725.20
2018-12-26T05:28:56.747Z,98696.45
2018-12-26T05:29:28.346Z,98725.61
2018-12-26T05:29:59.951Z,98722.20
2018-12-26T05:30:31.550Z,98721.75
2018-12-26T05:31:03.143Z,98724.30
2018-12-26T05:31:34.737Z,98709.80
2018-12-26T05:32:06.330Z,98714.02
2018-12-26T05:32:37.921Z,98715.69
2018-12-26T05:33:09.543Z,98722.92
2018-12-26T05:33:41.138Z,98720.77
2018-12-26T05:34:12.740Z,98722.44
2018-12-26T05:34:44.320Z,98722.41
2018-12-26T05:35:15.959Z,98727.94
2018-12-26T05:35:47.552Z,98727.48
2018-12-26T05:36:19.132Z,98726.17
2018-12-26T05:36:50.725Z,98723.58
2018-12-26T05:37:22.313Z,98722.73
2018-12-26T05:37:53.956Z,98723.55
2018-12-26T05:38:25.557Z,98720.96
2018-12-26T05:38:57.164Z,98738.42
2018-12-26T05:39:28.773Z,98734.98
2018-12-26T05:40:00.436Z,98736.23
2018-12-26T05:40:32.031Z,98737.50
2018-12-26T05:41:03.640Z,98735.77
2018-12-26T05:41:35.247Z,98737.89
2018-12-26T05:42:06.855Z,98742.94
2018-12-26T05:42:38.459Z,98741.16
2018-12-26T05:43:10.078Z,98744.11
2018-12-26T05:43:41.671Z,98741.05
2018-12-26T05:44:13.266Z,98743.15
2018-12-26T05:44:44.876Z,98747.83
2018-12-26T05:45:16.460Z,98741.87
2018-12-26T05:45:48.050Z,98743.96
2018-12-26T05:46:19.636Z,98743.96
2018-12-26T05:46:51.230Z,98743.92
2018-12-26T05:47:22.815Z,98740.12
2018-12-26T05:47:54.460Z,98742.69
2018-12-26T05:48:26.063Z,98744.81
2018-12-26T05:48:57.662Z,98737.14
2018-12-26T05:49:29.253Z,98740.59
2018-12-26T05:50:00.867Z,98743.15
2018-12-26T05:50:32.466Z,98744.42
2018-12-26T05:51:04.150Z,98739.31
2018-12-26T05:51:35.743Z,98739.34
2018-12-26T05:52:07.352Z,98748.72
2018-12-26T05:52:38.936Z,98752.59
2018-12-26T05:53:10.547Z,98749.61
2018-12-26T05:53:42.135Z,98747.05
2018-12-26T05:54:13.750Z,98757.71
2018-12-26T05:54:45.364Z,98753.45
2018-12-26T05:55:16.965Z,98747.91
2018-12-26T05:55:48.569Z,98745.35
2018-12-26T05:56:20.166Z,98744.53
2018-12-26T05:56:51.769Z,98743.26
2018-12-26T05:57:23.362Z,98745.00
2018-12-26T05:57:54.975Z,98745.39
2018-12-26T05:58:26.598Z,98745.42
2018-12-26T05:58:58.194Z,98746.70
2018-12-26T05:59:29.773Z,98743.33
2018-12-26T06:00:01.362Z,98750.18
2018-12-26T06:00:32.944Z,98745.06
2018-12-26T06:01:04.552Z,98742.09
2018-12-26T06:01:36.164Z,98742.91
2018-12-26T06:02:07.757Z,98740.31
2018-12-26T06:02:39.350Z,98735.63
2018-12-26T06:03:10.970Z,98728.38
2018-12-26T06:03:42.566Z,98726.28
2018-12-26T06:04:14.167Z,98728.84
2018-12-26T06:04:45.771Z,98724.58
2018-12-26T06:05:17.375Z,98722.02
2018-12-26T06:05:48.973Z,98728.87
2018-12-26T06:06:20.566Z,98718.27
2018-12-26T06:06:52.162Z,98725.96
2018-12-26T06:07:23.775Z,98725.11
2018-12-26T06:07:55.384Z,98726.42
2018-12-26T06:08:27.006Z,98694.72
2018-12-26T06:08:58.601Z,98726.03
2018-12-26T06:09:30.199Z,98727.73
2018-12-26T06:10:01.812Z,98726.07
2018-12-26T06:10:33.424Z,98732.46
2018-12-26T06:11:05.034Z,98727.81